Huntington, VT (05462)

8:06 PM EST on November 24, 2014 (GMT -0500)
East Street | Change Station
CLOSE
Current Station
Personal Weather Station
Location: Huntington, VT
Elevation: 854 ft
Nearby Weather Stations

Elev 854 ft 44.32 °N, 72.96 °W | Updated 4 seconds ago

Mostly Cloudy
Mostly Cloudy
63.1 °F
Feels Like 63.1 °F
N
9.0
Wind Variable Wind from WSW
Gusts 0.0 mph

Today
High -- | Low -- °F
--% Chance of Precip.
Yesterday
High -- | Low -- °F
Precip. -- in
6:59 AM 4:17 PM
Waxing Crescent, 8% visible
Pressure 29.41 in
Visibility 10.0 miles
Clouds Scattered Clouds 5000 ft
Dew Point 55 °F
Humidity 76%
Rainfall 0.33 in
Snow Depth Not available.
UV 0 out of 12
Pollen .10 out of 12
Air Quality Not available.
Flu Activity Not available.
METAR KBTV 250054Z 18015G25KT 10SM SCT050 17/12 A2941 RMK AO2 RAE16 SLP959 P0006 T01670122

More Conditions Fewer Conditions

Pressure 29.41 in
Visibility 10.0 miles
Clouds Scattered Clouds 5000 ft
Dew Point 55 °F
Humidity 76%
Rainfall 0.33 in
Snow Depth Not available.
UV 0 out of 12
Pollen .10 out of 12
Air Quality Not available.
Flu Activity Not available.
METAR KBTV 250054Z 18015G25KT 10SM SCT050 17/12 A2941 RMK AO2 RAE16 SLP959 P0006 T01670122

More Conditions Fewer Conditions

10-Day Weather Forecast

Almanac

Astronomy

Nov. 24, 2014 Rise Set
Actual Time
Civil Twilight
Nautical Twilight
Astronomical Twilight
Moon
Length of Visible Light
Length of Day
Tomorrow will be .
, % of the Moon is Illuminated

Today's Extremes

State Highs State Lows

Community

WunderPhotos

Upload Photos

1,773,446 photos uploaded!

WunderBlogs® & News

Nearby

Air Quality

  Air Quality AQ Index Pollutant
Not available.

Snow Depth

Station Depth Elevation

Earthquake Activity

City Distance Mag. Time & Date
Minimum magnitude displayed is 2.5.

Coastal Water Temperatures

Place Temperature

Nearby Weather Stations